sensor_id;sensor_type;location;lat;lon;timestamp;pressure;altitude;pressure_sealevel;temperature;humidity
63439;BME280;49567;48.958;8.294;2022-11-11T00:01:03;101860.19;;;8.60;81.24
63439;BME280;49567;48.958;8.294;2022-11-11T00:03:29;101861.44;;;8.57;81.20
63439;BME280;49567;48.958;8.294;2022-11-11T00:06:00;101874.50;;;8.54;80.97
63439;BME280;49567;48.958;8.294;2022-11-11T00:08:25;101863.47;;;8.49;80.59
63439;BME280;49567;48.958;8.294;2022-11-11T00:10:50;101867.41;;;8.46;80.54
63439;BME280;49567;48.958;8.294;2022-11-11T00:13:16;101865.91;;;8.44;80.32
63439;BME280;49567;48.958;8.294;2022-11-11T00:15:41;101863.81;;;8.39;80.69
63439;BME280;49567;48.958;8.294;2022-11-11T00:18:09;101858.22;;;8.41;80.25
63439;BME280;49567;48.958;8.294;2022-11-11T00:20:56;101850.06;;;8.34;79.93
63439;BME280;49567;48.958;8.294;2022-11-11T00:23:40;101845.25;;;8.29;80.34
63439;BME280;49567;48.958;8.294;2022-11-11T00:26:25;101850.66;;;8.29;79.88
63439;BME280;49567;48.958;8.294;2022-11-11T00:28:50;101853.38;;;8.29;80.12
63439;BME280;49567;48.958;8.294;2022-11-11T00:31:16;101865.41;;;8.33;80.15
63439;BME280;49567;48.958;8.294;2022-11-11T00:33:41;101861.91;;;8.33;80.01
63439;BME280;49567;48.958;8.294;2022-11-11T00:36:06;101867.31;;;8.33;80.17
63439;BME280;49567;48.958;8.294;2022-11-11T00:38:32;101866.03;;;8.29;80.23
63439;BME280;49567;48.958;8.294;2022-11-11T00:41:10;101859.94;;;8.27;79.83
63439;BME280;49567;48.958;8.294;2022-11-11T00:43:35;101860.63;;;8.29;79.75
63439;BME280;49567;48.958;8.294;2022-11-11T00:46:00;101860.63;;;8.29;80.03
63439;BME280;49567;48.958;8.294;2022-11-11T00:48:44;101862.84;;;8.25;80.37
63439;BME280;49567;48.958;8.294;2022-11-11T00:51:28;101864.88;;;8.23;79.99
63439;BME280;49567;48.958;8.294;2022-11-11T00:53:54;101875.69;;;8.23;80.03
63439;BME280;49567;48.958;8.294;2022-11-11T00:56:19;101876.00;;;8.28;79.90
63439;BME280;49567;48.958;8.294;2022-11-11T00:58:47;101882.38;;;8.27;79.89
63439;BME280;49567;48.958;8.294;2022-11-11T01:01:13;101884.25;;;8.27;79.51
63439;BME280;49567;48.958;8.294;2022-11-11T01:03:38;101887.28;;;8.17;80.25
63439;BME280;49567;48.958;8.294;2022-11-11T01:06:04;101882.94;;;8.16;80.10
63439;BME280;49567;48.958;8.294;2022-11-11T01:08:31;101891.25;;;8.21;79.56
63439;BME280;49567;48.958;8.294;2022-11-11T01:10:56;101894.53;;;8.17;79.86
63439;BME280;49567;48.958;8.294;2022-11-11T01:13:27;101898.06;;;8.17;79.92
63439;BME280;49567;48.958;8.294;2022-11-11T01:15:59;101898.28;;;8.16;79.83
63439;BME280;49567;48.958;8.294;2022-11-11T01:18:25;101895.38;;;8.17;79.84
63439;BME280;49567;48.958;8.294;2022-11-11T01:21:06;101899.38;;;8.21;79.91
63439;BME280;49567;48.958;8.294;2022-11-11T01:23:34;101896.50;;;8.23;79.58
63439;BME280;49567;48.958;8.294;2022-11-11T01:26:04;101892.09;;;8.22;80.11
63439;BME280;49567;48.958;8.294;2022-11-11T01:28:30;101888.56;;;8.21;79.80
63439;BME280;49567;48.958;8.294;2022-11-11T01:31:04;101894.59;;;8.23;79.63
63439;BME280;49567;48.958;8.294;2022-11-11T01:33:30;101895.00;;;8.20;80.13
63439;BME280;49567;48.958;8.294;2022-11-11T01:35:55;101897.91;;;8.19;79.79
63439;BME280;49567;48.958;8.294;2022-11-11T01:38:20;101891.66;;;8.18;79.93
63439;BME280;49567;48.958;8.294;2022-11-11T01:40:47;101892.22;;;8.14;79.62
63439;BME280;49567;48.958;8.294;2022-11-11T01:43:19;101886.66;;;8.15;79.99
63439;BME280;49567;48.958;8.294;2022-11-11T01:45:57;101890.19;;;8.16;79.91
63439;BME280;49567;48.958;8.294;2022-11-11T01:48:35;101900.16;;;8.15;80.44
63439;BME280;49567;48.958;8.294;2022-11-11T01:51:32;101902.84;;;8.15;80.26
63439;BME280;49567;48.958;8.294;2022-11-11T01:54:02;101897.63;;;8.14;79.94
63439;BME280;49567;48.958;8.294;2022-11-11T01:56:28;101899.13;;;8.16;nan
63439;BME280;49567;48.958;8.294;2022-11-11T01:58:57;101902.84;;;8.15;80.09
63439;BME280;49567;48.958;8.294;2022-11-11T02:01:25;101903.88;;;8.14;79.93
63439;BME280;49567;48.958;8.294;2022-11-11T02:03:52;101899.94;;;8.17;80.11
63439;BME280;49567;48.958;8.294;2022-11-11T02:06:37;101901.97;;;8.29;79.22
63439;BME280;49567;48.958;8.294;2022-11-11T02:09:05;101901.59;;;8.32;79.58
63439;BME280;49567;48.958;8.294;2022-11-11T02:11:32;101895.78;;;8.36;79.38
63439;BME280;49567;48.958;8.294;2022-11-11T02:14:17;101893.31;;;8.41;79.56
63439;BME280;49567;48.958;8.294;2022-11-11T02:17:02;101894.50;;;8.31;80.08
63439;BME280;49567;48.958;8.294;2022-11-11T02:22:06;101901.50;;;8.26;80.38
63439;BME280;49567;48.958;8.294;2022-11-11T02:24:32;101893.19;;;8.27;80.46
63439;BME280;49567;48.958;8.294;2022-11-11T02:26:58;101900.66;;;8.25;80.62
63439;BME280;49567;48.958;8.294;2022-11-11T02:29:26;101893.47;;;8.11;81.32
63439;BME280;49567;48.958;8.294;2022-11-11T02:31:53;101897.78;;;8.06;81.39
63439;BME280;49567;48.958;8.294;2022-11-11T02:34:18;101901.88;;;8.02;81.18
63439;BME280;49567;48.958;8.294;2022-11-11T02:36:44;101888.31;;;7.95;81.51
63439;BME280;49567;48.958;8.294;2022-11-11T02:39:09;101884.34;;;7.91;81.13
63439;BME280;49567;48.958;8.294;2022-11-11T02:41:35;101888.91;;;7.91;81.36
63439;BME280;49567;48.958;8.294;2022-11-11T02:44:18;101887.03;;;7.91;81.19
63439;BME280;49567;48.958;8.294;2022-11-11T02:46:44;101878.09;;;7.91;81.34
63439;BME280;49567;48.958;8.294;2022-11-11T02:49:09;101884.72;;;7.88;81.76
63439;BME280;49567;48.958;8.294;2022-11-11T02:51:34;101884.09;;;7.86;81.47
63439;BME280;49567;48.958;8.294;2022-11-11T02:53:59;101885.50;;;7.82;81.99
63439;BME280;49567;48.958;8.294;2022-11-11T02:56:27;101886.91;;;7.78;81.55
63439;BME280;49567;48.958;8.294;2022-11-11T02:59:11;101888.31;;;7.74;81.74
63439;BME280;49567;48.958;8.294;2022-11-11T03:01:36;101885.34;;;7.69;81.17
63439;BME280;49567;48.958;8.294;2022-11-11T03:04:01;101885.53;;;7.67;80.99
63439;BME280;49567;48.958;8.294;2022-11-11T03:06:27;101900.47;;;7.63;81.14
63439;BME280;49567;48.958;8.294;2022-11-11T03:08:52;101894.59;;;7.60;80.81
63439;BME280;49567;48.958;8.294;2022-11-11T03:11:17;101890.22;;;7.59;80.79
63439;BME280;49567;48.958;8.294;2022-11-11T03:13:52;101888.16;;;7.61;80.63
63439;BME280;49567;48.958;8.294;2022-11-11T03:16:17;101892.38;;;7.63;80.98
63439;BME280;49567;48.958;8.294;2022-11-11T03:19:01;101884.91;;;7.65;80.55
63439;BME280;49567;48.958;8.294;2022-11-11T03:21:26;101876.41;;;7.68;80.68
63439;BME280;49567;48.958;8.294;2022-11-11T03:23:52;101884.53;;;7.68;80.39
63439;BME280;49567;48.958;8.294;2022-11-11T03:26:17;101881.97;;;7.60;80.83
63439;BME280;49567;48.958;8.294;2022-11-11T03:28:43;101890.91;;;7.46;81.36
63439;BME280;49567;48.958;8.294;2022-11-11T03:31:08;101887.44;;;7.52;81.77
63439;BME280;49567;48.958;8.294;2022-11-11T03:33:34;101895.91;;;7.64;81.56
63439;BME280;49567;48.958;8.294;2022-11-11T03:35:59;101894.47;;;7.68;81.24
63439;BME280;49567;48.958;8.294;2022-11-11T03:38:24;101902.69;;;7.60;81.47
63439;BME280;49567;48.958;8.294;2022-11-11T03:40:54;101905.94;;;7.55;82.00
63439;BME280;49567;48.958;8.294;2022-11-11T03:43:27;101912.75;;;7.51;82.50
63439;BME280;49567;48.958;8.294;2022-11-11T03:45:56;101924.19;;;7.53;82.26
63439;BME280;49567;48.958;8.294;2022-11-11T03:48:22;101925.84;;;7.54;82.25
63439;BME280;49567;48.958;8.294;2022-11-11T03:50:48;101925.59;;;7.64;82.27
63439;BME280;49567;48.958;8.294;2022-11-11T03:53:15;101935.16;;;7.66;82.39
63439;BME280;49567;48.958;8.294;2022-11-11T03:55:41;101938.63;;;7.60;82.21
63439;BME280;49567;48.958;8.294;2022-11-11T03:58:07;101936.78;;;7.46;83.32
63439;BME280;49567;48.958;8.294;2022-11-11T04:00:33;101941.69;;;7.43;83.50
63439;BME280;49567;48.958;8.294;2022-11-11T04:03:06;101949.25;;;7.47;83.98
63439;BME280;49567;48.958;8.294;2022-11-11T04:05:51;101950.59;;;7.58;83.81
63439;BME280;49567;48.958;8.294;2022-11-11T04:08:35;101950.28;;;7.67;83.00
63439;BME280;49567;48.958;8.294;2022-11-11T04:11:24;101951.91;;;7.62;83.12
63439;BME280;49567;48.958;8.294;2022-11-11T04:13:52;101956.72;;;7.66;83.10
63439;BME280;49567;48.958;8.294;2022-11-11T04:16:36;101957.00;;;7.71;83.36
63439;BME280;49567;48.958;8.294;2022-11-11T04:19:02;101963.69;;;7.75;83.20
63439;BME280;49567;48.958;8.294;2022-11-11T04:21:46;101973.34;;;7.84;82.84
63439;BME280;49567;48.958;8.294;2022-11-11T04:24:16;101971.31;;;7.87;83.20
63439;BME280;49567;48.958;8.294;2022-11-11T04:27:08;101966.63;;;7.80;82.81
63439;BME280;49567;48.958;8.294;2022-11-11T04:29:34;101970.63;;;7.84;83.27
63439;BME280;49567;48.958;8.294;2022-11-11T04:34:46;101970.78;;;7.98;83.50
63439;BME280;49567;48.958;8.294;2022-11-11T04:37:12;101979.34;;;8.01;83.23
63439;BME280;49567;48.958;8.294;2022-11-11T04:39:38;101980.19;;;8.02;83.37
63439;BME280;49567;48.958;8.294;2022-11-11T04:42:22;101980.34;;;8.00;83.11
63439;BME280;49567;48.958;8.294;2022-11-11T04:44:48;101976.09;;;7.91;83.34
63439;BME280;49567;48.958;8.294;2022-11-11T04:47:32;101980.66;;;7.91;83.84
63439;BME280;49567;48.958;8.294;2022-11-11T04:49:57;101981.50;;;7.91;83.38
63439;BME280;49567;48.958;8.294;2022-11-11T04:52:22;101980.88;;;7.89;83.36
63439;BME280;49567;48.958;8.294;2022-11-11T04:54:50;101991.47;;;7.91;83.71
63439;BME280;49567;48.958;8.294;2022-11-11T04:57:38;101991.00;;;7.87;83.19
63439;BME280;49567;48.958;8.294;2022-11-11T05:00:05;101992.91;;;7.87;83.49
63439;BME280;49567;48.958;8.294;2022-11-11T05:02:30;101996.59;;;7.86;83.78
63439;BME280;49567;48.958;8.294;2022-11-11T05:05:14;102007.41;;;7.86;84.01
63439;BME280;49567;48.958;8.294;2022-11-11T05:07:39;102001.00;;;7.87;83.96
63439;BME280;49567;48.958;8.294;2022-11-11T05:10:24;102010.94;;;7.86;84.18
63439;BME280;49567;48.958;8.294;2022-11-11T05:12:49;102013.19;;;7.82;84.38
63439;BME280;49567;48.958;8.294;2022-11-11T05:15:14;102020.25;;;7.83;84.41
63439;BME280;49567;48.958;8.294;2022-11-11T05:17:58;102018.84;;;7.88;84.52
63439;BME280;49567;48.958;8.294;2022-11-11T05:20:47;102015.28;;;7.87;84.13
63439;BME280;49567;48.958;8.294;2022-11-11T05:23:31;102023.38;;;7.87;83.98
63439;BME280;49567;48.958;8.294;2022-11-11T05:26:15;102033.84;;;7.90;84.23
63439;BME280;49567;48.958;8.294;2022-11-11T05:28:40;102035.31;;;7.93;84.47
63439;BME280;49567;48.958;8.294;2022-11-11T05:31:05;102041.72;;;7.92;84.20
63439;BME280;49567;48.958;8.294;2022-11-11T05:33:31;102036.72;;;7.89;84.33
63439;BME280;49567;48.958;8.294;2022-11-11T05:35:56;102042.13;;;7.89;84.83
63439;BME280;49567;48.958;8.294;2022-11-11T05:38:21;102036.53;;;7.90;84.23
63439;BME280;49567;48.958;8.294;2022-11-11T05:40:46;102039.03;;;7.92;84.15
63439;BME280;49567;48.958;8.294;2022-11-11T05:43:15;102033.19;;;7.88;84.36
63439;BME280;49567;48.958;8.294;2022-11-11T05:45:40;102033.63;;;7.92;84.59
63439;BME280;49567;48.958;8.294;2022-11-11T05:48:06;102031.41;;;7.95;84.81
63439;BME280;49567;48.958;8.294;2022-11-11T05:50:32;102042.03;;;7.97;84.69
63439;BME280;49567;48.958;8.294;2022-11-11T05:52:57;102043.88;;;7.96;84.96
63439;BME280;49567;48.958;8.294;2022-11-11T05:55:22;102049.66;;;7.93;85.12
63439;BME280;49567;48.958;8.294;2022-11-11T05:57:48;102046.13;;;7.93;84.50
63439;BME280;49567;48.958;8.294;2022-11-11T06:00:13;102047.59;;;7.95;85.24
63439;BME280;49567;48.958;8.294;2022-11-11T06:02:39;102049.91;;;7.98;84.54
63439;BME280;49567;48.958;8.294;2022-11-11T06:05:05;102045.19;;;7.86;85.31
63439;BME280;49567;48.958;8.294;2022-11-11T06:07:32;102043.59;;;7.91;85.27
63439;BME280;49567;48.958;8.294;2022-11-11T06:09:57;102042.03;;;7.97;84.97
63439;BME280;49567;48.958;8.294;2022-11-11T06:12:42;102045.34;;;7.99;84.73
63439;BME280;49567;48.958;8.294;2022-11-11T06:15:27;102043.50;;;7.99;84.89
63439;BME280;49567;48.958;8.294;2022-11-11T06:17:52;102047.13;;;7.92;85.05
63439;BME280;49567;48.958;8.294;2022-11-11T06:20:18;102043.59;;;7.91;85.17
63439;BME280;49567;48.958;8.294;2022-11-11T06:22:43;102059.41;;;7.94;84.77
63439;BME280;49567;48.958;8.294;2022-11-11T06:25:22;102058.47;;;7.87;85.03
63439;BME280;49567;48.958;8.294;2022-11-11T06:28:06;102063.06;;;7.87;84.57
63439;BME280;49567;48.958;8.294;2022-11-11T06:30:31;102067.34;;;7.81;84.57
63439;BME280;49567;48.958;8.294;2022-11-11T06:32:57;102064.84;;;7.79;85.12
63439;BME280;49567;48.958;8.294;2022-11-11T06:35:22;102063.88;;;7.87;85.29
63439;BME280;49567;48.958;8.294;2022-11-11T06:37:47;102073.38;;;7.98;85.17
63439;BME280;49567;48.958;8.294;2022-11-11T06:40:12;102073.56;;;7.96;84.98
63439;BME280;49567;48.958;8.294;2022-11-11T06:42:38;102074.41;;;7.97;84.98
63439;BME280;49567;48.958;8.294;2022-11-11T06:45:03;102076.72;;;8.00;84.91
63439;BME280;49567;48.958;8.294;2022-11-11T06:47:29;102084.25;;;8.04;84.71
63439;BME280;49567;48.958;8.294;2022-11-11T06:49:54;102082.22;;;8.06;85.05
63439;BME280;49567;48.958;8.294;2022-11-11T06:52:20;102075.31;;;8.04;84.95
63439;BME280;49567;48.958;8.294;2022-11-11T06:54:47;102066.41;;;8.03;84.75
63439;BME280;49567;48.958;8.294;2022-11-11T06:57:12;102078.69;;;8.06;84.94
63439;BME280;49567;48.958;8.294;2022-11-11T06:59:37;102074.66;;;8.02;84.36
63439;BME280;49567;48.958;8.294;2022-11-11T07:02:03;102075.69;;;8.01;85.12
63439;BME280;49567;48.958;8.294;2022-11-11T07:04:30;102076.16;;;8.04;85.08
63439;BME280;49567;48.958;8.294;2022-11-11T07:06:56;102085.09;;;8.05;84.82
63439;BME280;49567;48.958;8.294;2022-11-11T07:16:05;102078.75;;;7.98;85.02
63439;BME280;49567;48.958;8.294;2022-11-11T07:18:30;102078.13;;;7.96;84.40
63439;BME280;49567;48.958;8.294;2022-11-11T07:20:56;102087.63;;;7.92;84.67
63439;BME280;49567;48.958;8.294;2022-11-11T07:23:21;102089.78;;;7.96;84.65
63439;BME280;49567;48.958;8.294;2022-11-11T07:25:46;102094.13;;;7.97;84.71
63439;BME280;49567;48.958;8.294;2022-11-11T07:28:11;102096.28;;;8.02;84.94
63439;BME280;49567;48.958;8.294;2022-11-11T07:30:37;102096.09;;;8.03;84.82
63439;BME280;49567;48.958;8.294;2022-11-11T07:33:02;102098.88;;;8.10;84.89
63439;BME280;49567;48.958;8.294;2022-11-11T07:35:27;102090.19;;;8.14;84.30
63439;BME280;49567;48.958;8.294;2022-11-11T07:37:53;102088.63;;;7.91;84.25
63439;BME280;49567;48.958;8.294;2022-11-11T07:40:18;102090.63;;;7.97;84.67
63439;BME280;49567;48.958;8.294;2022-11-11T07:42:44;102089.94;;;8.09;84.11
63439;BME280;49567;48.958;8.294;2022-11-11T07:45:10;102091.41;;;8.12;83.73
63439;BME280;49567;48.958;8.294;2022-11-11T07:47:36;102097.06;;;8.17;83.67
63439;BME280;49567;48.958;8.294;2022-11-11T07:50:03;102096.91;;;8.18;83.39
63439;BME280;49567;48.958;8.294;2022-11-11T07:52:29;102099.97;;;8.15;83.83
63439;BME280;49567;48.958;8.294;2022-11-11T07:54:55;102103.59;;;8.08;83.81
63439;BME280;49567;48.958;8.294;2022-11-11T07:57:20;102105.09;;;8.10;84.28
63439;BME280;49567;48.958;8.294;2022-11-11T07:59:46;102104.28;;;8.10;84.05
63439;BME280;49567;48.958;8.294;2022-11-11T08:02:12;102103.59;;;8.08;84.54
63439;BME280;49567;48.958;8.294;2022-11-11T08:04:37;102096.25;;;8.16;84.17
63439;BME280;49567;48.958;8.294;2022-11-11T08:07:03;102104.75;;;8.13;84.27
63439;BME280;49567;48.958;8.294;2022-11-11T08:09:28;102109.16;;;8.21;84.07
63439;BME280;49567;48.958;8.294;2022-11-11T08:11:54;102101.84;;;8.29;83.36
63439;BME280;49567;48.958;8.294;2022-11-11T08:14:38;102102.31;;;8.33;83.12
63439;BME280;49567;48.958;8.294;2022-11-11T08:17:03;102114.50;;;8.29;83.26
63439;BME280;49567;48.958;8.294;2022-11-11T08:19:29;102109.00;;;8.22;83.44
63439;BME280;49567;48.958;8.294;2022-11-11T08:21:54;102109.94;;;8.29;83.79
63439;BME280;49567;48.958;8.294;2022-11-11T08:24:19;102104.16;;;8.32;83.06
63439;BME280;49567;48.958;8.294;2022-11-11T08:26:46;102104.81;;;8.34;83.54
63439;BME280;49567;48.958;8.294;2022-11-11T08:29:12;102109.56;;;8.32;83.63
63439;BME280;49567;48.958;8.294;2022-11-11T08:31:37;102105.00;;;8.33;83.22
63439;BME280;49567;48.958;8.294;2022-11-11T08:34:03;102116.25;;;8.37;83.52
63439;BME280;49567;48.958;8.294;2022-11-11T08:36:29;102098.00;;;8.39;83.48
63439;BME280;49567;48.958;8.294;2022-11-11T08:38:54;102107.66;;;8.48;83.29
63439;BME280;49567;48.958;8.294;2022-11-11T08:41:20;102108.50;;;8.48;82.87
63439;BME280;49567;48.958;8.294;2022-11-11T08:43:46;102102.88;;;8.50;82.77
63439;BME280;49567;48.958;8.294;2022-11-11T08:46:11;102104.84;;;8.56;82.75
63439;BME280;49567;48.958;8.294;2022-11-11T08:48:37;102103.41;;;8.60;82.99
63439;BME280;49567;48.958;8.294;2022-11-11T08:51:02;102104.53;;;8.65;82.63
63439;BME280;49567;48.958;8.294;2022-11-11T08:53:27;102107.69;;;8.69;82.65
63439;BME280;49567;48.958;8.294;2022-11-11T08:55:53;102105.44;;;8.72;82.69
63439;BME280;49567;48.958;8.294;2022-11-11T08:58:18;102108.22;;;8.79;82.23
63439;BME280;49567;48.958;8.294;2022-11-11T09:00:44;102109.84;;;8.80;82.19
63439;BME280;49567;48.958;8.294;2022-11-11T09:03:10;102106.59;;;8.84;81.66
63439;BME280;49567;48.958;8.294;2022-11-11T09:05:40;102094.38;;;8.89;81.81
63439;BME280;49567;48.958;8.294;2022-11-11T09:08:06;102102.31;;;8.97;81.49
63439;BME280;49567;48.958;8.294;2022-11-11T09:10:35;102114.44;;;9.01;81.30
63439;BME280;49567;48.958;8.294;2022-11-11T09:13:01;102104.25;;;9.03;81.32
63439;BME280;49567;48.958;8.294;2022-11-11T09:15:27;102109.06;;;9.07;81.48
63439;BME280;49567;48.958;8.294;2022-11-11T09:17:53;102114.31;;;9.09;81.60
63439;BME280;49567;48.958;8.294;2022-11-11T09:20:19;102112.84;;;9.13;81.39
63439;BME280;49567;48.958;8.294;2022-11-11T09:22:45;102112.84;;;9.13;81.47
63439;BME280;49567;48.958;8.294;2022-11-11T09:25:11;102111.22;;;9.12;81.87
63439;BME280;49567;48.958;8.294;2022-11-11T09:27:36;102114.38;;;9.15;81.76
63439;BME280;49567;48.958;8.294;2022-11-11T09:30:03;102113.19;;;9.24;81.60
63439;BME280;49567;48.958;8.294;2022-11-11T09:32:28;102112.38;;;9.30;81.69
63439;BME280;49567;48.958;8.294;2022-11-11T09:34:54;102111.81;;;9.35;81.59
63439;BME280;49567;48.958;8.294;2022-11-11T09:37:20;102107.22;;;9.35;81.28
63439;BME280;49567;48.958;8.294;2022-11-11T09:39:45;102106.41;;;9.35;81.31
63439;BME280;49567;48.958;8.294;2022-11-11T09:42:32;102104.50;;;9.35;81.43
63439;BME280;49567;48.958;8.294;2022-11-11T09:48:01;102096.94;;;9.52;81.33
63439;BME280;49567;48.958;8.294;2022-11-11T09:50:31;102100.91;;;9.56;81.57
63439;BME280;49567;48.958;8.294;2022-11-11T09:53:19;102104.84;;;9.54;81.26
63439;BME280;49567;48.958;8.294;2022-11-11T09:55:51;102104.19;;;9.52;81.46
63439;BME280;49567;48.958;8.294;2022-11-11T09:58:23;102110.06;;;9.55;81.53
63439;BME280;49567;48.958;8.294;2022-11-11T10:00:59;102109.47;;;9.60;81.50
63439;BME280;49567;48.958;8.294;2022-11-11T10:03:28;102102.81;;;9.62;81.00
63439;BME280;49567;48.958;8.294;2022-11-11T10:08:50;102100.28;;;9.54;81.58
63439;BME280;49567;48.958;8.294;2022-11-11T10:11:47;102101.91;;;9.49;81.52
63439;BME280;49567;48.958;8.294;2022-11-11T10:14:15;102101.81;;;9.35;82.06
63439;BME280;49567;48.958;8.294;2022-11-11T10:16:57;102102.47;;;9.37;82.71
63439;BME280;49567;48.958;8.294;2022-11-11T10:22:19;102105.41;;;9.43;82.44
63439;BME280;49567;48.958;8.294;2022-11-11T10:24:51;102100.19;;;9.41;82.33
63439;BME280;49567;48.958;8.294;2022-11-11T10:27:22;102107.31;;;9.49;82.31
63439;BME280;49567;48.958;8.294;2022-11-11T10:29:48;102109.44;;;9.53;82.44
63439;BME280;49567;48.958;8.294;2022-11-11T10:32:28;102117.44;;;9.68;82.20
63439;BME280;49567;48.958;8.294;2022-11-11T10:35:14;102114.97;;;9.73;81.57
63439;BME280;49567;48.958;8.294;2022-11-11T10:37:42;102118.53;;;9.73;81.44
63439;BME280;49567;48.958;8.294;2022-11-11T10:42:44;102121.97;;;9.61;82.54
63439;BME280;49567;48.958;8.294;2022-11-11T10:45:30;102113.69;;;9.69;82.20
63439;BME280;49567;48.958;8.294;2022-11-11T10:48:07;102108.50;;;9.67;82.24
63439;BME280;49567;48.958;8.294;2022-11-11T10:50:34;102105.56;;;9.69;82.33
63439;BME280;49567;48.958;8.294;2022-11-11T10:55:44;102101.53;;;9.58;83.12
63439;BME280;49567;48.958;8.294;2022-11-11T10:58:24;102096.25;;;9.71;82.93
63439;BME280;49567;48.958;8.294;2022-11-11T11:00:52;102101.06;;;9.82;82.40
63439;BME280;49567;48.958;8.294;2022-11-11T11:03:21;102090.91;;;9.84;82.10
63439;BME280;49567;48.958;8.294;2022-11-11T11:05:52;102093.59;;;9.84;82.45
63439;BME280;49567;48.958;8.294;2022-11-11T11:08:27;102097.75;;;9.80;82.00
63439;BME280;49567;48.958;8.294;2022-11-11T11:10:57;102098.28;;;9.69;82.71
63439;BME280;49567;48.958;8.294;2022-11-11T11:15:56;102099.38;;;9.81;82.23
63439;BME280;49567;48.958;8.294;2022-11-11T11:18:22;102085.31;;;9.99;81.57
63439;BME280;49567;48.958;8.294;2022-11-11T11:23:35;102085.53;;;9.98;81.68
63439;BME280;49567;48.958;8.294;2022-11-11T11:26:01;102074.13;;;10.09;81.37
63439;BME280;49567;48.958;8.294;2022-11-11T11:28:28;102076.28;;;10.20;81.20
63439;BME280;49567;48.958;8.294;2022-11-11T11:31:00;102074.38;;;10.14;81.30
63439;BME280;49567;48.958;8.294;2022-11-11T11:33:26;102064.19;;;10.16;81.10
63439;BME280;49567;48.958;8.294;2022-11-11T11:35:51;102073.09;;;10.10;81.51
63439;BME280;49567;48.958;8.294;2022-11-11T11:38:17;102072.25;;;10.09;81.36
63439;BME280;49567;48.958;8.294;2022-11-11T11:40:54;102067.66;;;10.10;81.50
63439;BME280;49567;48.958;8.294;2022-11-11T11:43:26;102062.69;;;10.13;81.29
63439;BME280;49567;48.958;8.294;2022-11-11T11:45:57;102050.63;;;10.16;81.10
63439;BME280;49567;48.958;8.294;2022-11-11T11:48:42;102049.59;;;10.17;81.29
63439;BME280;49567;48.958;8.294;2022-11-11T11:51:46;102056.66;;;10.18;81.10
63439;BME280;49567;48.958;8.294;2022-11-11T11:54:29;102045.56;;;10.06;81.29
63439;BME280;49567;48.958;8.294;2022-11-11T11:57:14;102038.25;;;10.00;81.55
63439;BME280;49567;48.958;8.294;2022-11-11T12:00:02;102043.66;;;10.00;81.62
63439;BME280;49567;48.958;8.294;2022-11-11T12:05:25;102051.38;;;9.97;81.91
63439;BME280;49567;48.958;8.294;2022-11-11T12:08:43;102061.81;;;10.06;81.93
63439;BME280;49567;48.958;8.294;2022-11-11T12:10:58;102050.38;;;10.04;82.18
63439;BME280;49567;48.958;8.294;2022-11-11T12:16:30;102057.84;;;10.02;82.39
63439;BME280;49567;48.958;8.294;2022-11-11T12:21:53;102060.75;;;10.01;82.65
63439;BME280;49567;48.958;8.294;2022-11-11T12:27:25;102066.63;;;10.04;82.75
63439;BME280;49567;48.958;8.294;2022-11-11T12:32:37;102055.13;;;10.02;82.92
63439;BME280;49567;48.958;8.294;2022-11-11T12:38:05;102054.69;;;9.99;83.14
63439;BME280;49567;48.958;8.294;2022-11-11T12:57:13;102046.63;;;10.12;82.90
63439;BME280;49567;48.958;8.294;2022-11-11T13:00:17;102044.72;;;10.06;83.04
63439;BME280;49567;48.958;8.294;2022-11-11T13:05:31;102059.38;;;10.18;82.84
63439;BME280;49567;48.958;8.294;2022-11-11T13:11:00;102053.16;;;10.24;82.69
63439;BME280;49567;48.958;8.294;2022-11-11T13:13:34;102056.50;;;10.26;82.46
63439;BME280;49567;48.958;8.294;2022-11-11T13:16:07;102058.38;;;10.25;82.83
63439;BME280;49567;48.958;8.294;2022-11-11T13:18:55;102061.94;;;10.32;82.39
63439;BME280;49567;48.958;8.294;2022-11-11T13:21:26;102072.75;;;10.26;82.49
63439;BME280;49567;48.958;8.294;2022-11-11T13:23:54;102074.19;;;10.22;82.87
63439;BME280;49567;48.958;8.294;2022-11-11T13:26:37;102080.47;;;10.29;82.59
63439;BME280;49567;48.958;8.294;2022-11-11T13:31:54;102071.09;;;10.31;82.56
63439;BME280;49567;48.958;8.294;2022-11-11T13:34:21;102067.34;;;10.32;82.83
63439;BME280;49567;48.958;8.294;2022-11-11T13:36:50;102068.38;;;10.31;83.00
63439;BME280;49567;48.958;8.294;2022-11-11T13:39:48;102067.34;;;10.32;82.86
63439;BME280;49567;48.958;8.294;2022-11-11T13:42:21;102057.34;;;10.33;82.90
63439;BME280;49567;48.958;8.294;2022-11-11T13:44:58;102049.00;;;10.34;82.88
63439;BME280;49567;48.958;8.294;2022-11-11T13:47:32;102046.94;;;10.30;82.85
63439;BME280;49567;48.958;8.294;2022-11-11T13:50:04;102053.78;;;10.26;83.01
63439;BME280;49567;48.958;8.294;2022-11-11T13:52:33;102052.94;;;10.25;83.02
63439;BME280;49567;48.958;8.294;2022-11-11T13:55:08;102047.75;;;10.24;83.17
63439;BME280;49567;48.958;8.294;2022-11-11T13:57:50;102051.25;;;10.24;83.47
63439;BME280;49567;48.958;8.294;2022-11-11T14:02:41;102053.16;;;10.17;83.61
63439;BME280;49567;48.958;8.294;2022-11-11T14:12:46;102053.69;;;10.06;84.16
63439;BME280;49567;48.958;8.294;2022-11-11T14:18:30;102056.84;;;10.10;84.60
63439;BME280;49567;48.958;8.294;2022-11-11T14:20:55;102067.66;;;10.10;84.35
63439;BME280;49567;48.958;8.294;2022-11-11T14:23:34;102061.19;;;10.04;84.33
63439;BME280;49567;48.958;8.294;2022-11-11T14:31:42;102074.75;;;10.11;84.22
63439;BME280;49567;48.958;8.294;2022-11-11T14:39:56;102070.97;;;10.05;84.19
63439;BME280;49567;48.958;8.294;2022-11-11T14:45:00;102058.47;;;10.04;84.37
63439;BME280;49567;48.958;8.294;2022-11-11T14:47:41;102065.16;;;10.08;84.41
63439;BME280;49567;48.958;8.294;2022-11-11T14:52:53;102054.13;;;10.10;84.35
63439;BME280;49567;48.958;8.294;2022-11-11T14:55:28;102049.13;;;10.07;84.41
63439;BME280;49567;48.958;8.294;2022-11-11T15:00:26;102052.22;;;10.04;84.74